Sunset View, California
Current Conditions -  °F | °C
As of 6:00 AM on Friday 31 Oct 2014 (Local Time) from KGOO Reporting Station
Scattered Clouds Scattered Clouds  
Wind Chill: 11°   Ceiling: Unl
Heat Index: 11°   Visibility: 10mi
Dew Point:   Wind: 8mph
Humidity: 71%   Direction: 110°ESE
Pressure: 29.93"   Gusts: NA
Location:  39.2183°N, 120.924°W
Report Text: KGOO 311300Z AUTO 11007KT 10SM FEW090 SCT110 11/06 A2993 RMK AO1
Loading
Personal Weather Stations






























Interactive Weather Map
Tropical Storm Tracking
New forecast layout! Learn more

10-Day Weather Forecast

Advertisements
Track Severe Weather on mobile